sensor_id;sensor_type;location;lat;lon;timestamp;temperature;humidity
37478;DHT22;23334;54.316;10.182;2023-05-10T00:01:43;13.00;88.20
37478;DHT22;23334;54.316;10.182;2023-05-10T00:04:08;12.90;88.20
37478;DHT22;23334;54.316;10.182;2023-05-10T00:06:34;12.90;88.80
37478;DHT22;23334;54.316;10.182;2023-05-10T00:08:59;13.20;89.80
37478;DHT22;23334;54.316;10.182;2023-05-10T00:11:25;15.00;90.80
37478;DHT22;23334;54.316;10.182;2023-05-10T00:13:50;13.70;90.10
37478;DHT22;23334;54.316;10.182;2023-05-10T00:16:16;12.80;90.10
37478;DHT22;23334;54.316;10.182;2023-05-10T00:18:42;13.50;90.90
37478;DHT22;23334;54.316;10.182;2023-05-10T00:21:08;12.60;90.30
37478;DHT22;23334;54.316;10.182;2023-05-10T00:23:33;14.40;91.50
37478;DHT22;23334;54.316;10.182;2023-05-10T00:25:59;14.70;91.60
37478;DHT22;23334;54.316;10.182;2023-05-10T00:28:24;15.70;92.10
37478;DHT22;23334;54.316;10.182;2023-05-10T00:30:50;12.50;90.80
37478;DHT22;23334;54.316;10.182;2023-05-10T00:33:15;12.60;91.00
37478;DHT22;23334;54.316;10.182;2023-05-10T00:35:41;12.60;90.90
37478;DHT22;23334;54.316;10.182;2023-05-10T00:38:06;12.50;90.90
37478;DHT22;23334;54.316;10.182;2023-05-10T00:40:32;12.70;91.30
37478;DHT22;23334;54.316;10.182;2023-05-10T00:42:58;13.00;91.50
37478;DHT22;23334;54.316;10.182;2023-05-10T00:45:25;14.50;92.50
37478;DHT22;23334;54.316;10.182;2023-05-10T00:47:51;15.00;93.20
37478;DHT22;23334;54.316;10.182;2023-05-10T00:50:21;12.30;91.80
37478;DHT22;23334;54.316;10.182;2023-05-10T00:52:46;12.30;91.80
37478;DHT22;23334;54.316;10.182;2023-05-10T00:55:12;14.00;93.00
37478;DHT22;23334;54.316;10.182;2023-05-10T00:57:38;14.50;93.40
37478;DHT22;23334;54.316;10.182;2023-05-10T01:00:05;15.40;93.80
37478;DHT22;23334;54.316;10.182;2023-05-10T01:02:30;12.20;92.70
37478;DHT22;23334;54.316;10.182;2023-05-10T01:04:56;14.00;93.40
37478;DHT22;23334;54.316;10.182;2023-05-10T01:07:21;14.80;94.10
37478;DHT22;23334;54.316;10.182;2023-05-10T01:09:47;12.10;92.90
37478;DHT22;23334;54.316;10.182;2023-05-10T01:12:13;14.50;94.00
37478;DHT22;23334;54.316;10.182;2023-05-10T01:14:39;12.20;92.90
37478;DHT22;23334;54.316;10.182;2023-05-10T01:17:05;15.20;94.40
37478;DHT22;23334;54.316;10.182;2023-05-10T01:19:32;13.60;93.70
37478;DHT22;23334;54.316;10.182;2023-05-10T01:22:39;12.10;93.20
37478;DHT22;23334;54.316;10.182;2023-05-10T01:25:23;12.10;93.30
37478;DHT22;23334;54.316;10.182;2023-05-10T01:31:17;12.00;93.50
37478;DHT22;23334;54.316;10.182;2023-05-10T01:34:07;12.00;93.70
37478;DHT22;23334;54.316;10.182;2023-05-10T01:36:48;11.90;93.90
37478;DHT22;23334;54.316;10.182;2023-05-10T01:39:25;11.90;94.10
37478;DHT22;23334;54.316;10.182;2023-05-10T01:42:02;11.90;94.50
37478;DHT22;23334;54.316;10.182;2023-05-10T01:44:39;11.90;94.30
37478;DHT22;23334;54.316;10.182;2023-05-10T01:47:09;11.90;94.40
37478;DHT22;23334;54.316;10.182;2023-05-10T01:49:41;11.90;94.50
37478;DHT22;23334;54.316;10.182;2023-05-10T01:52:11;11.90;94.60
37478;DHT22;23334;54.316;10.182;2023-05-10T01:54:44;11.90;94.80
37478;DHT22;23334;54.316;10.182;2023-05-10T01:57:16;11.80;94.90
37478;DHT22;23334;54.316;10.182;2023-05-10T01:59:45;11.80;95.00
37478;DHT22;23334;54.316;10.182;2023-05-10T02:02:15;11.80;95.20
37478;DHT22;23334;54.316;10.182;2023-05-10T02:04:41;11.80;95.30
37478;DHT22;23334;54.316;10.182;2023-05-10T02:07:08;11.80;95.70
37478;DHT22;23334;54.316;10.182;2023-05-10T02:09:35;11.80;95.80
37478;DHT22;23334;54.316;10.182;2023-05-10T02:12:02;11.70;95.60
37478;DHT22;23334;54.316;10.182;2023-05-10T02:14:32;11.70;95.90
37478;DHT22;23334;54.316;10.182;2023-05-10T02:16:59;11.80;95.90
37478;DHT22;23334;54.316;10.182;2023-05-10T02:19:26;14.50;97.40
37478;DHT22;23334;54.316;10.182;2023-05-10T02:28:58;11.70;96.50
37478;DHT22;23334;54.316;10.182;2023-05-10T02:31:24;11.60;96.40
37478;DHT22;23334;54.316;10.182;2023-05-10T02:33:51;11.60;96.60
37478;DHT22;23334;54.316;10.182;2023-05-10T02:36:17;11.70;96.60
37478;DHT22;23334;54.316;10.182;2023-05-10T02:38:44;11.60;96.80
37478;DHT22;23334;54.316;10.182;2023-05-10T02:41:11;11.60;97.00
37478;DHT22;23334;54.316;10.182;2023-05-10T02:43:38;11.50;97.20
37478;DHT22;23334;54.316;10.182;2023-05-10T02:46:05;11.60;97.20
37478;DHT22;23334;54.316;10.182;2023-05-10T02:48:30;11.50;97.30
37478;DHT22;23334;54.316;10.182;2023-05-10T02:51:05;11.50;97.50
37478;DHT22;23334;54.316;10.182;2023-05-10T02:53:34;11.50;97.60
37478;DHT22;23334;54.316;10.182;2023-05-10T02:56:04;11.40;97.80
37478;DHT22;23334;54.316;10.182;2023-05-10T02:58:30;11.40;97.90
37478;DHT22;23334;54.316;10.182;2023-05-10T03:00:55;11.40;98.20
37478;DHT22;23334;54.316;10.182;2023-05-10T03:03:21;11.40;98.30
37478;DHT22;23334;54.316;10.182;2023-05-10T03:05:46;11.30;98.60
37478;DHT22;23334;54.316;10.182;2023-05-10T03:08:12;11.30;98.80
37478;DHT22;23334;54.316;10.182;2023-05-10T03:14:05;11.30;98.90
37478;DHT22;23334;54.316;10.182;2023-05-10T03:16:42;11.30;99.20
37478;DHT22;23334;54.316;10.182;2023-05-10T03:19:22;11.20;99.50
37478;DHT22;23334;54.316;10.182;2023-05-10T03:21:51;11.20;99.50
37478;DHT22;23334;54.316;10.182;2023-05-10T03:24:20;11.20;99.60
37478;DHT22;23334;54.316;10.182;2023-05-10T03:26:47;11.20;99.90
37478;DHT22;23334;54.316;10.182;2023-05-10T03:29:14;11.10;99.90
37478;DHT22;23334;54.316;10.182;2023-05-10T03:31:41;11.10;99.90
37478;DHT22;23334;54.316;10.182;2023-05-10T03:34:07;11.20;99.90
37478;DHT22;23334;54.316;10.182;2023-05-10T03:36:32;11.10;99.90
37478;DHT22;23334;54.316;10.182;2023-05-10T03:38:59;11.10;99.90
37478;DHT22;23334;54.316;10.182;2023-05-10T03:41:25;11.20;99.90
37478;DHT22;23334;54.316;10.182;2023-05-10T03:43:50;11.20;99.90
37478;DHT22;23334;54.316;10.182;2023-05-10T03:46:16;11.20;99.90
37478;DHT22;23334;54.316;10.182;2023-05-10T03:48:41;11.20;99.90
37478;DHT22;23334;54.316;10.182;2023-05-10T03:53:33;11.20;99.90
37478;DHT22;23334;54.316;10.182;2023-05-10T03:55:58;11.30;99.90
37478;DHT22;23334;54.316;10.182;2023-05-10T03:58:24;11.30;99.90
37478;DHT22;23334;54.316;10.182;2023-05-10T04:00:51;11.30;99.90
37478;DHT22;23334;54.316;10.182;2023-05-10T04:03:16;11.30;99.90
37478;DHT22;23334;54.316;10.182;2023-05-10T04:05:42;11.30;99.90
37478;DHT22;23334;54.316;10.182;2023-05-10T04:08:08;11.30;99.90
37478;DHT22;23334;54.316;10.182;2023-05-10T04:10:33;11.40;99.90
37478;DHT22;23334;54.316;10.182;2023-05-10T04:12:59;11.50;99.90
37478;DHT22;23334;54.316;10.182;2023-05-10T04:15:25;11.50;99.90
37478;DHT22;23334;54.316;10.182;2023-05-10T04:17:50;11.50;99.90
37478;DHT22;23334;54.316;10.182;2023-05-10T04:20:16;11.60;99.90
37478;DHT22;23334;54.316;10.182;2023-05-10T04:22:42;13.70;99.90
37478;DHT22;23334;54.316;10.182;2023-05-10T04:25:08;11.70;99.90
37478;DHT22;23334;54.316;10.182;2023-05-10T04:27:35;11.70;99.90
37478;DHT22;23334;54.316;10.182;2023-05-10T04:34:53;11.80;99.90
37478;DHT22;23334;54.316;10.182;2023-05-10T04:37:21;11.90;99.90
37478;DHT22;23334;54.316;10.182;2023-05-10T04:39:48;12.00;99.90
37478;DHT22;23334;54.316;10.182;2023-05-10T04:42:13;12.00;99.90
37478;DHT22;23334;54.316;10.182;2023-05-10T04:44:40;12.10;99.90
37478;DHT22;23334;54.316;10.182;2023-05-10T04:47:05;12.20;99.90
37478;DHT22;23334;54.316;10.182;2023-05-10T04:49:32;12.30;99.90
37478;DHT22;23334;54.316;10.182;2023-05-10T04:51:58;12.40;99.70
37478;DHT22;23334;54.316;10.182;2023-05-10T04:54:24;12.50;99.60
37478;DHT22;23334;54.316;10.182;2023-05-10T04:56:50;12.50;99.60
37478;DHT22;23334;54.316;10.182;2023-05-10T04:59:15;12.60;99.40
37478;DHT22;23334;54.316;10.182;2023-05-10T05:01:41;12.50;99.80
37478;DHT22;23334;54.316;10.182;2023-05-10T05:04:06;12.60;99.10
37478;DHT22;23334;54.316;10.182;2023-05-10T05:06:32;12.50;99.30
37478;DHT22;23334;54.316;10.182;2023-05-10T05:09:01;12.50;99.10
37478;DHT22;23334;54.316;10.182;2023-05-10T05:11:26;10.90;98.70
37478;DHT22;23334;54.316;10.182;2023-05-10T05:13:52;12.50;99.60
37478;DHT22;23334;54.316;10.182;2023-05-10T05:16:17;12.60;99.70
37478;DHT22;23334;54.316;10.182;2023-05-10T05:18:43;12.50;99.90
37478;DHT22;23334;54.316;10.182;2023-05-10T05:21:15;12.60;99.90
37478;DHT22;23334;54.316;10.182;2023-05-10T05:23:41;12.70;99.30
37478;DHT22;23334;54.316;10.182;2023-05-10T05:26:07;12.80;99.50
37478;DHT22;23334;54.316;10.182;2023-05-10T05:28:32;12.80;99.70
37478;DHT22;23334;54.316;10.182;2023-05-10T05:31:02;13.00;99.30
37478;DHT22;23334;54.316;10.182;2023-05-10T05:33:28;13.10;98.90
37478;DHT22;23334;54.316;10.182;2023-05-10T05:35:53;13.20;99.20
37478;DHT22;23334;54.316;10.182;2023-05-10T05:38:19;13.70;98.00
37478;DHT22;23334;54.316;10.182;2023-05-10T05:40:45;13.80;98.30
37478;DHT22;23334;54.316;10.182;2023-05-10T05:43:10;14.30;97.40
37478;DHT22;23334;54.316;10.182;2023-05-10T05:45:37;15.00;96.60
37478;DHT22;23334;54.316;10.182;2023-05-10T05:48:04;17.00;92.70
37478;DHT22;23334;54.316;10.182;2023-05-10T05:50:29;17.10;92.60
37478;DHT22;23334;54.316;10.182;2023-05-10T05:52:55;17.30;90.90
37478;DHT22;23334;54.316;10.182;2023-05-10T05:55:24;17.80;90.40
37478;DHT22;23334;54.316;10.182;2023-05-10T05:57:51;18.80;86.60
37478;DHT22;23334;54.316;10.182;2023-05-10T06:00:17;18.70;84.50
37478;DHT22;23334;54.316;10.182;2023-05-10T06:05:09;21.00;75.60
37478;DHT22;23334;54.316;10.182;2023-05-10T06:11:39;21.30;71.80
37478;DHT22;23334;54.316;10.182;2023-05-10T06:25:24;22.50;64.00
37478;DHT22;23334;54.316;10.182;2023-05-10T06:35:32;20.60;67.50
37478;DHT22;23334;54.316;10.182;2023-05-10T06:38:29;20.40;68.20
37478;DHT22;23334;54.316;10.182;2023-05-10T07:04:15;21.50;67.10
37478;DHT22;23334;54.316;10.182;2023-05-10T07:06:41;21.40;67.50
37478;DHT22;23334;54.316;10.182;2023-05-10T07:09:06;21.50;68.00
37478;DHT22;23334;54.316;10.182;2023-05-10T07:11:32;21.70;69.80
37478;DHT22;23334;54.316;10.182;2023-05-10T07:13:58;21.40;69.00
37478;DHT22;23334;54.316;10.182;2023-05-10T07:28:34;24.50;57.80
37478;DHT22;23334;54.316;10.182;2023-05-10T07:31:02;24.00;58.20
37478;DHT22;23334;54.316;10.182;2023-05-10T07:35:54;24.10;57.90
37478;DHT22;23334;54.316;10.182;2023-05-10T07:38:19;23.30;60.00
37478;DHT22;23334;54.316;10.182;2023-05-10T07:43:11;22.30;62.70
37478;DHT22;23334;54.316;10.182;2023-05-10T07:45:36;22.80;63.50
37478;DHT22;23334;54.316;10.182;2023-05-10T07:48:02;23.30;61.70
37478;DHT22;23334;54.316;10.182;2023-05-10T07:50:27;24.50;59.10
37478;DHT22;23334;54.316;10.182;2023-05-10T07:55:19;23.70;58.70
37478;DHT22;23334;54.316;10.182;2023-05-10T07:57:46;24.00;60.20
37478;DHT22;23334;54.316;10.182;2023-05-10T08:00:18;23.40;61.10
37478;DHT22;23334;54.316;10.182;2023-05-10T08:02:44;23.90;60.00
37478;DHT22;23334;54.316;10.182;2023-05-10T08:05:11;24.50;60.10
37478;DHT22;23334;54.316;10.182;2023-05-10T08:07:36;25.90;58.30
37478;DHT22;23334;54.316;10.182;2023-05-10T08:10:04;26.20;55.30
37478;DHT22;23334;54.316;10.182;2023-05-10T08:12:29;27.50;53.60
37478;DHT22;23334;54.316;10.182;2023-05-10T08:15:10;27.20;50.90
37478;DHT22;23334;54.316;10.182;2023-05-10T08:18:06;25.70;52.60
37478;DHT22;23334;54.316;10.182;2023-05-10T08:21:24;26.10;53.70
37478;DHT22;23334;54.316;10.182;2023-05-10T08:24:30;27.20;51.20
37478;DHT22;23334;54.316;10.182;2023-05-10T08:31:04;28.10;49.70
37478;DHT22;23334;54.316;10.182;2023-05-10T08:37:43;29.00;48.20
37478;DHT22;23334;54.316;10.182;2023-05-10T08:40:14;29.30;46.70
37478;DHT22;23334;54.316;10.182;2023-05-10T08:43:26;28.00;46.60
37478;DHT22;23334;54.316;10.182;2023-05-10T08:46:07;28.40;46.80
37478;DHT22;23334;54.316;10.182;2023-05-10T08:48:54;29.00;47.00
37478;DHT22;23334;54.316;10.182;2023-05-10T08:51:45;29.50;44.90
37478;DHT22;23334;54.316;10.182;2023-05-10T08:54:36;30.00;43.00
37478;DHT22;23334;54.316;10.182;2023-05-10T09:07:33;30.00;44.10
37478;DHT22;23334;54.316;10.182;2023-05-10T09:10:04;30.50;43.10
37478;DHT22;23334;54.316;10.182;2023-05-10T09:13:40;30.40;41.80
37478;DHT22;23334;54.316;10.182;2023-05-10T09:20:08;28.60;42.30
37478;DHT22;23334;54.316;10.182;2023-05-10T09:22:42;28.50;42.90
37478;DHT22;23334;54.316;10.182;2023-05-10T09:25:25;27.00;47.00
37478;DHT22;23334;54.316;10.182;2023-05-10T09:30:22;25.90;47.90
37478;DHT22;23334;54.316;10.182;2023-05-10T09:32:50;24.40;51.70
37478;DHT22;23334;54.316;10.182;2023-05-10T09:35:18;23.90;52.30
37478;DHT22;23334;54.316;10.182;2023-05-10T09:37:52;23.90;53.10
37478;DHT22;23334;54.316;10.182;2023-05-10T09:40:34;24.40;54.00
37478;DHT22;23334;54.316;10.182;2023-05-10T09:43:02;25.80;53.50
37478;DHT22;23334;54.316;10.182;2023-05-10T09:45:33;25.60;52.60
37478;DHT22;23334;54.316;10.182;2023-05-10T09:48:27;26.40;52.70
37478;DHT22;23334;54.316;10.182;2023-05-10T09:50:57;27.40;48.10
37478;DHT22;23334;54.316;10.182;2023-05-10T09:53:34;28.00;48.40
37478;DHT22;23334;54.316;10.182;2023-05-10T09:56:09;28.10;46.90
37478;DHT22;23334;54.316;10.182;2023-05-10T09:58:39;28.00;48.10
37478;DHT22;23334;54.316;10.182;2023-05-10T10:01:39;28.20;45.80
37478;DHT22;23334;54.316;10.182;2023-05-10T10:04:09;27.10;49.00
37478;DHT22;23334;54.316;10.182;2023-05-10T10:06:41;27.10;49.70
37478;DHT22;23334;54.316;10.182;2023-05-10T10:09:08;26.70;48.50
37478;DHT22;23334;54.316;10.182;2023-05-10T10:11:44;26.30;50.50
37478;DHT22;23334;54.316;10.182;2023-05-10T10:14:43;26.60;49.30
37478;DHT22;23334;54.316;10.182;2023-05-10T10:17:19;26.70;50.70
37478;DHT22;23334;54.316;10.182;2023-05-10T10:20:29;26.70;49.20
37478;DHT22;23334;54.316;10.182;2023-05-10T10:23:10;27.20;49.60
37478;DHT22;23334;54.316;10.182;2023-05-10T10:26:18;26.70;50.50
37478;DHT22;23334;54.316;10.182;2023-05-10T10:32:27;26.10;51.00
37478;DHT22;23334;54.316;10.182;2023-05-10T10:34:57;25.10;53.40
37478;DHT22;23334;54.316;10.182;2023-05-10T10:37:46;24.50;54.70
37478;DHT22;23334;54.316;10.182;2023-05-10T10:40:43;23.70;54.30
37478;DHT22;23334;54.316;10.182;2023-05-10T10:43:43;23.20;59.50
37478;DHT22;23334;54.316;10.182;2023-05-10T10:50:43;23.80;58.00
37478;DHT22;23334;54.316;10.182;2023-05-10T10:53:56;23.50;59.70
37478;DHT22;23334;54.316;10.182;2023-05-10T10:57:43;22.70;62.00
37478;DHT22;23334;54.316;10.182;2023-05-10T11:01:25;22.50;64.20
37478;DHT22;23334;54.316;10.182;2023-05-10T11:04:58;22.20;64.80
37478;DHT22;23334;54.316;10.182;2023-05-10T11:08:26;21.90;65.10
37478;DHT22;23334;54.316;10.182;2023-05-10T11:14:59;22.60;65.30
37478;DHT22;23334;54.316;10.182;2023-05-10T11:17:55;22.40;68.30
37478;DHT22;23334;54.316;10.182;2023-05-10T11:21:01;22.20;67.70
37478;DHT22;23334;54.316;10.182;2023-05-10T11:24:13;22.20;67.20
37478;DHT22;23334;54.316;10.182;2023-05-10T11:37:49;21.10;75.80
37478;DHT22;23334;54.316;10.182;2023-05-10T11:40:39;20.70;73.80
37478;DHT22;23334;54.316;10.182;2023-05-10T11:43:47;20.70;75.10
37478;DHT22;23334;54.316;10.182;2023-05-10T11:46:38;20.40;75.60
37478;DHT22;23334;54.316;10.182;2023-05-10T11:49:57;20.10;77.70
37478;DHT22;23334;54.316;10.182;2023-05-10T11:52:50;20.20;80.20
37478;DHT22;23334;54.316;10.182;2023-05-10T11:56:08;20.20;78.90
37478;DHT22;23334;54.316;10.182;2023-05-10T11:58:57;20.30;81.50
37478;DHT22;23334;54.316;10.182;2023-05-10T12:01:29;20.20;80.60
37478;DHT22;23334;54.316;10.182;2023-05-10T12:08:12;20.30;79.60
37478;DHT22;23334;54.316;10.182;2023-05-10T12:11:49;20.20;83.90
37478;DHT22;23334;54.316;10.182;2023-05-10T12:14:26;20.20;83.00
37478;DHT22;23334;54.316;10.182;2023-05-10T12:20:26;20.00;87.10
37478;DHT22;23334;54.316;10.182;2023-05-10T12:26:17;19.70;90.50
37478;DHT22;23334;54.316;10.182;2023-05-10T12:28:43;19.60;90.60
37478;DHT22;23334;54.316;10.182;2023-05-10T12:31:09;19.70;91.00
37478;DHT22;23334;54.316;10.182;2023-05-10T12:33:39;19.90;90.60
37478;DHT22;23334;54.316;10.182;2023-05-10T12:38:35;19.90;91.90
37478;DHT22;23334;54.316;10.182;2023-05-10T12:41:04;19.90;92.10
37478;DHT22;23334;54.316;10.182;2023-05-10T12:43:31;19.40;94.40
37478;DHT22;23334;54.316;10.182;2023-05-10T12:45:57;18.90;96.70
37478;DHT22;23334;54.316;10.182;2023-05-10T12:53:15;17.70;99.90
37478;DHT22;23334;54.316;10.182;2023-05-10T13:00:33;17.10;99.90
37478;DHT22;23334;54.316;10.182;2023-05-10T13:05:24;16.90;99.90
37478;DHT22;23334;54.316;10.182;2023-05-10T13:07:50;16.90;99.90
37478;DHT22;23334;54.316;10.182;2023-05-10T13:10:16;16.90;99.90
37478;DHT22;23334;54.316;10.182;2023-05-10T13:12:41;16.70;99.90
37478;DHT22;23334;54.316;10.182;2023-05-10T13:15:07;16.70;99.90
37478;DHT22;23334;54.316;10.182;2023-05-10T13:19:58;16.70;99.90
37478;DHT22;23334;54.316;10.182;2023-05-10T13:22:25;16.60;99.90
37478;DHT22;23334;54.316;10.182;2023-05-10T13:27:16;16.30;99.90
37478;DHT22;23334;54.316;10.182;2023-05-10T13:34:33;16.20;99.90
37478;DHT22;23334;54.316;10.182;2023-05-10T13:39:26;16.30;99.90
37478;DHT22;23334;54.316;10.182;2023-05-10T13:41:52;16.30;99.90
37478;DHT22;23334;54.316;10.182;2023-05-10T13:44:19;16.10;99.90
37478;DHT22;23334;54.316;10.182;2023-05-10T13:46:45;16.10;99.90
37478;DHT22;23334;54.316;10.182;2023-05-10T13:54:03;16.00;99.90
37478;DHT22;23334;54.316;10.182;2023-05-10T14:01:20;15.90;99.90
37478;DHT22;23334;54.316;10.182;2023-05-10T14:03:46;16.00;99.90
37478;DHT22;23334;54.316;10.182;2023-05-10T14:06:11;16.20;99.90
37478;DHT22;23334;54.316;10.182;2023-05-10T14:08:37;16.10;99.90
37478;DHT22;23334;54.316;10.182;2023-05-10T14:11:02;16.10;99.90
37478;DHT22;23334;54.316;10.182;2023-05-10T14:13:28;17.30;99.90
37478;DHT22;23334;54.316;10.182;2023-05-10T14:15:54;16.20;99.90
37478;DHT22;23334;54.316;10.182;2023-05-10T14:18:19;16.00;99.90
37478;DHT22;23334;54.316;10.182;2023-05-10T14:20:45;16.20;99.90
37478;DHT22;23334;54.316;10.182;2023-05-10T14:45:09;17.00;99.90
37478;DHT22;23334;54.316;10.182;2023-05-10T14:52:27;16.80;99.90
37478;DHT22;23334;54.316;10.182;2023-05-10T14:54:52;16.70;99.90
37478;DHT22;23334;54.316;10.182;2023-05-10T14:57:18;16.70;99.90
37478;DHT22;23334;54.316;10.182;2023-05-10T14:59:45;16.80;99.90
37478;DHT22;23334;54.316;10.182;2023-05-10T15:04:37;16.80;99.90
37478;DHT22;23334;54.316;10.182;2023-05-10T15:09:29;17.00;99.90
37478;DHT22;23334;54.316;10.182;2023-05-10T15:11:55;17.00;99.90
37478;DHT22;23334;54.316;10.182;2023-05-10T15:14:21;17.00;99.90
37478;DHT22;23334;54.316;10.182;2023-05-10T15:19:12;16.90;99.90
37478;DHT22;23334;54.316;10.182;2023-05-10T15:21:38;17.00;99.90
37478;DHT22;23334;54.316;10.182;2023-05-10T15:24:07;17.10;99.90
37478;DHT22;23334;54.316;10.182;2023-05-10T15:31:24;17.30;99.90
37478;DHT22;23334;54.316;10.182;2023-05-10T15:33:50;17.40;99.90
37478;DHT22;23334;54.316;10.182;2023-05-10T15:38:43;17.60;99.90
37478;DHT22;23334;54.316;10.182;2023-05-10T15:50:56;17.60;99.90
37478;DHT22;23334;54.316;10.182;2023-05-10T15:53:21;17.60;99.90
37478;DHT22;23334;54.316;10.182;2023-05-10T15:55:47;17.60;99.90
37478;DHT22;23334;54.316;10.182;2023-05-10T16:12:50;17.70;99.90
37478;DHT22;23334;54.316;10.182;2023-05-10T16:17:41;17.50;99.90
37478;DHT22;23334;54.316;10.182;2023-05-10T16:20:07;17.50;99.90
37478;DHT22;23334;54.316;10.182;2023-05-10T16:22:34;17.50;99.90
37478;DHT22;23334;54.316;10.182;2023-05-10T16:29:54;17.30;99.90
37478;DHT22;23334;54.316;10.182;2023-05-10T16:32:19;16.50;99.90
37478;DHT22;23334;54.316;10.182;2023-05-10T16:39:38;17.10;99.90
37478;DHT22;23334;54.316;10.182;2023-05-10T16:42:03;17.10;99.90
37478;DHT22;23334;54.316;10.182;2023-05-10T16:44:29;17.50;99.90
37478;DHT22;23334;54.316;10.182;2023-05-10T16:49:20;17.10;99.90
37478;DHT22;23334;54.316;10.182;2023-05-10T16:54:12;17.30;99.90
37478;DHT22;23334;54.316;10.182;2023-05-10T16:56:38;17.70;99.90
37478;DHT22;23334;54.316;10.182;2023-05-10T16:59:03;17.20;99.90
37478;DHT22;23334;54.316;10.182;2023-05-10T17:01:30;17.20;99.90
37478;DHT22;23334;54.316;10.182;2023-05-10T17:03:55;17.20;99.90
37478;DHT22;23334;54.316;10.182;2023-05-10T17:06:20;17.20;99.90
37478;DHT22;23334;54.316;10.182;2023-05-10T17:08:46;17.20;99.90
37478;DHT22;23334;54.316;10.182;2023-05-10T17:13:38;17.00;99.90
37478;DHT22;23334;54.316;10.182;2023-05-10T17:16:03;16.90;99.90
37478;DHT22;23334;54.316;10.182;2023-05-10T17:18:29;18.00;99.90
37478;DHT22;23334;54.316;10.182;2023-05-10T17:23:20;16.90;99.90
37478;DHT22;23334;54.316;10.182;2023-05-10T17:25:46;17.20;99.90
37478;DHT22;23334;54.316;10.182;2023-05-10T17:30:37;16.90;99.90
37478;DHT22;23334;54.316;10.182;2023-05-10T17:33:03;16.80;99.90
37478;DHT22;23334;54.316;10.182;2023-05-10T17:37:55;16.80;99.90
37478;DHT22;23334;54.316;10.182;2023-05-10T17:40:21;16.70;99.90
37478;DHT22;23334;54.316;10.182;2023-05-10T17:42:47;16.70;99.90
37478;DHT22;23334;54.316;10.182;2023-05-10T17:47:39;16.70;99.90
37478;DHT22;23334;54.316;10.182;2023-05-10T17:50:05;16.70;99.90
37478;DHT22;23334;54.316;10.182;2023-05-10T17:52:30;16.60;99.90
37478;DHT22;23334;54.316;10.182;2023-05-10T17:59:49;16.50;99.90
37478;DHT22;23334;54.316;10.182;2023-05-10T18:12:00;16.30;99.90
37478;DHT22;23334;54.316;10.182;2023-05-10T18:21:47;16.20;99.90
37478;DHT22;23334;54.316;10.182;2023-05-10T18:24:12;16.20;99.90
37478;DHT22;23334;54.316;10.182;2023-05-10T18:29:04;16.10;99.90
37478;DHT22;23334;54.316;10.182;2023-05-10T18:36:22;15.90;99.90
37478;DHT22;23334;54.316;10.182;2023-05-10T18:38:47;15.90;99.90
37478;DHT22;23334;54.316;10.182;2023-05-10T18:41:13;16.30;99.90
37478;DHT22;23334;54.316;10.182;2023-05-10T18:43:38;15.80;99.90
37478;DHT22;23334;54.316;10.182;2023-05-10T18:53:23;15.80;99.90
37478;DHT22;23334;54.316;10.182;2023-05-10T18:55:58;15.80;99.90
37478;DHT22;23334;54.316;10.182;2023-05-10T18:58:27;15.70;99.90
37478;DHT22;23334;54.316;10.182;2023-05-10T19:00:52;15.70;99.90
37478;DHT22;23334;54.316;10.182;2023-05-10T19:03:18;15.60;99.90
37478;DHT22;23334;54.316;10.182;2023-05-10T19:05:44;15.70;99.90
37478;DHT22;23334;54.316;10.182;2023-05-10T19:08:12;15.60;99.90
37478;DHT22;23334;54.316;10.182;2023-05-10T19:10:37;15.60;99.90
37478;DHT22;23334;54.316;10.182;2023-05-10T19:22:47;15.50;99.90
37478;DHT22;23334;54.316;10.182;2023-05-10T19:25:12;15.50;99.90
37478;DHT22;23334;54.316;10.182;2023-05-10T19:27:38;15.40;99.90
37478;DHT22;23334;54.316;10.182;2023-05-10T19:30:04;15.40;99.90
37478;DHT22;23334;54.316;10.182;2023-05-10T19:32:30;15.30;99.90
37478;DHT22;23334;54.316;10.182;2023-05-10T19:34:55;15.30;99.90
37478;DHT22;23334;54.316;10.182;2023-05-10T19:37:21;15.20;99.90
37478;DHT22;23334;54.316;10.182;2023-05-10T19:39:46;15.20;99.90
37478;DHT22;23334;54.316;10.182;2023-05-10T19:42:11;15.10;99.90
37478;DHT22;23334;54.316;10.182;2023-05-10T19:47:03;15.00;99.90
37478;DHT22;23334;54.316;10.182;2023-05-10T19:49:29;14.90;99.90
37478;DHT22;23334;54.316;10.182;2023-05-10T19:51:56;15.90;99.90
37478;DHT22;23334;54.316;10.182;2023-05-10T19:59:13;14.60;99.90
37478;DHT22;23334;54.316;10.182;2023-05-10T20:08:58;14.30;99.90
37478;DHT22;23334;54.316;10.182;2023-05-10T20:11:23;14.30;99.90
37478;DHT22;23334;54.316;10.182;2023-05-10T20:16:16;14.30;99.90
37478;DHT22;23334;54.316;10.182;2023-05-10T20:21:09;14.20;99.90
37478;DHT22;23334;54.316;10.182;2023-05-10T20:23:34;14.70;99.90
37478;DHT22;23334;54.316;10.182;2023-05-10T20:30:54;14.10;99.90
37478;DHT22;23334;54.316;10.182;2023-05-10T20:52:48;14.00;99.90
37478;DHT22;23334;54.316;10.182;2023-05-10T20:55:17;14.00;99.90
37478;DHT22;23334;54.316;10.182;2023-05-10T21:00:09;14.00;99.90
37478;DHT22;23334;54.316;10.182;2023-05-10T21:07:27;13.90;99.90
37478;DHT22;23334;54.316;10.182;2023-05-10T21:26:59;13.80;99.90
37478;DHT22;23334;54.316;10.182;2023-05-10T21:31:51;13.70;99.90
37478;DHT22;23334;54.316;10.182;2023-05-10T21:34:17;13.60;99.90
37478;DHT22;23334;54.316;10.182;2023-05-10T21:36:42;15.10;99.90
37478;DHT22;23334;54.316;10.182;2023-05-10T21:58:38;13.40;99.90
37478;DHT22;23334;54.316;10.182;2023-05-10T22:01:04;13.40;99.90
37478;DHT22;23334;54.316;10.182;2023-05-10T22:10:47;13.30;99.90
37478;DHT22;23334;54.316;10.182;2023-05-10T22:15:38;13.20;99.90
37478;DHT22;23334;54.316;10.182;2023-05-10T22:20:30;13.20;99.90
37478;DHT22;23334;54.316;10.182;2023-05-10T22:22:55;13.10;99.90
37478;DHT22;23334;54.316;10.182;2023-05-10T22:25:21;13.20;99.90
37478;DHT22;23334;54.316;10.182;2023-05-10T22:27:48;12.80;99.90
37478;DHT22;23334;54.316;10.182;2023-05-10T22:30:13;13.10;99.90
37478;DHT22;23334;54.316;10.182;2023-05-10T22:32:39;13.10;99.90
37478;DHT22;23334;54.316;10.182;2023-05-10T22:35:05;13.00;99.90
37478;DHT22;23334;54.316;10.182;2023-05-10T22:37:30;12.90;99.90
37478;DHT22;23334;54.316;10.182;2023-05-10T22:44:48;12.90;99.90
37478;DHT22;23334;54.316;10.182;2023-05-10T22:49:40;12.90;99.90
37478;DHT22;23334;54.316;10.182;2023-05-10T22:59:26;12.80;99.90
37478;DHT22;23334;54.316;10.182;2023-05-10T23:04:18;12.80;99.90